SLCB/CBB METAR and TAF weather

Enter ICAO airport designator
Station Type Date Time Source
SLCB METAR 2020/01/20 22:00 UTC NOAA

SLCB 202200Z 08007KT 030V130 9999 FEW036 FEW040CB SCT200 24/09 Q1020


Station Type Date Time Source
SLCB Decoded METAR 2020/01/20 22:00 UTC NOAA

Cochabamba, Bolivia (SLCB) 17-25S 066-11W 2570M
Jan 20, 2020 - 05:00 PM EST / 2020.01.20 2200 UTC
Wind: from the E (080 degrees) at 8 MPH (7 KT) (direction variable):0
Visibility: greater than 7 mile(s):0
Sky conditions: partly cloudy
Weather: Cumulonimbus clouds observed
Temperature: 75 F (24 C)
Dew Point: 48 F (9 C)
Relative Humidity: 38%
Pressure (altimeter): 30.12 in. Hg (1020 hPa)
ob: SLCB 202200Z 08007KT 030V130 9999 FEW036 FEW040CB SCT200 24/09 Q1020
cycle: 22

Station Type Date Time Source
SLCB TAF 2020/01/20 18:45 UTC NOAA

TAF SLCB 201600Z 2018/2118 27010KT 9999 FEW030 SCT070 TX26/2019Z TN14/2111Z PROB30
TEMPO 2018/2021 14010KT 8000 TSRA FEW036CB
BECMG 2102/2104 00000KT SCT027 BKN070
TEMPO 2105/2107 8000 RA

Example: see airport list